Disclaimer

Please do not use the information listed here in-flight or in-navigation, as they are not provided to us by the airports but are provided by volunteers, so they might be outdated.

Search


Regions


Airport information page

Radio informations:
Tower (TWR) - 118.1 MHz
TAIPEI APP - 119.7 MHz

Latitude: N/A
Longitude: N/A
Elevation: N/A
Operating hours: N/A
Operating agency: N/A
Timezone: N/A
Fuel: N/A

Recent METARs:
RCSS 190430Z 09010KT 9999 FEW015 BKN025 BKN050 22/19 Q1019 NOSIG RMK A3010
RCSS 190430Z 09010KT 9999 FEW015 BKN025 BKN050 22/19 Q1019 NOSIG RMK A3010
RCSS 190530Z 09010KT 9999 FEW010 BKN022 BKN045 22/19 Q1018 NOSIG RMK A3008

Airport on the map: